sensor_id;sensor_type;location;lat;lon;timestamp;pressure;altitude;pressure_sealevel;temperature;humidity
40171;BME280;37650;52.790;18.268;2023-06-10T00:00:50;100567.98;;;18.84;61.90
40171;BME280;37650;52.790;18.268;2023-06-10T00:04:30;100571.43;;;18.85;61.48
40171;BME280;37650;52.790;18.268;2023-06-10T00:07:51;100572.98;;;18.83;61.20
40171;BME280;37650;52.790;18.268;2023-06-10T00:11:16;100575.70;;;18.82;60.84
40171;BME280;37650;52.790;18.268;2023-06-10T00:14:38;100578.14;;;18.80;60.71
40171;BME280;37650;52.790;18.268;2023-06-10T00:18:00;100580.48;;;18.77;60.72
40171;BME280;37650;52.790;18.268;2023-06-10T00:21:23;100578.58;;;18.74;60.51
40171;BME280;37650;52.790;18.268;2023-06-10T00:24:45;100577.21;;;18.68;60.58
40171;BME280;37650;52.790;18.268;2023-06-10T00:28:06;100584.19;;;18.59;60.45
40171;BME280;37650;52.790;18.268;2023-06-10T00:31:27;100587.17;;;18.52;60.56
40171;BME280;37650;52.790;18.268;2023-06-10T00:34:48;100594.17;;;18.42;60.53
40171;BME280;37650;52.790;18.268;2023-06-10T00:38:09;100591.90;;;18.34;60.80
40171;BME280;37650;52.790;18.268;2023-06-10T00:41:31;100594.64;;;18.28;61.25
40171;BME280;37650;52.790;18.268;2023-06-10T00:44:55;100593.55;;;18.25;61.52
40171;BME280;37650;52.790;18.268;2023-06-10T00:48:16;100593.67;;;18.21;61.65
40171;BME280;37650;52.790;18.268;2023-06-10T00:51:38;100592.23;;;18.13;61.76
40171;BME280;37650;52.790;18.268;2023-06-10T00:55:00;100593.32;;;18.07;61.83
40171;BME280;37650;52.790;18.268;2023-06-10T00:58:23;100595.09;;;18.01;62.01
40171;BME280;37650;52.790;18.268;2023-06-10T01:01:46;100599.42;;;17.97;61.89
40171;BME280;37650;52.790;18.268;2023-06-10T01:05:10;100603.06;;;17.93;61.76
40171;BME280;37650;52.790;18.268;2023-06-10T01:12:39;100603.85;;;17.87;61.60
40171;BME280;37650;52.790;18.268;2023-06-10T01:16:02;100606.11;;;17.85;61.41
40171;BME280;37650;52.790;18.268;2023-06-10T01:19:24;100608.65;;;17.81;61.39
40171;BME280;37650;52.790;18.268;2023-06-10T01:22:45;100612.95;;;17.75;61.31
40171;BME280;37650;52.790;18.268;2023-06-10T01:26:10;100610.83;;;17.66;61.39
40171;BME280;37650;52.790;18.268;2023-06-10T01:29:44;100613.83;;;17.61;61.64
40171;BME280;37650;52.790;18.268;2023-06-10T01:33:09;100611.05;;;17.57;61.63
40171;BME280;37650;52.790;18.268;2023-06-10T01:36:32;100610.04;;;17.53;61.63
40171;BME280;37650;52.790;18.268;2023-06-10T01:40:02;100609.95;;;17.49;61.72
40171;BME280;37650;52.790;18.268;2023-06-10T01:43:26;100616.51;;;17.46;61.68
40171;BME280;37650;52.790;18.268;2023-06-10T01:46:48;100619.80;;;17.42;61.74
40171;BME280;37650;52.790;18.268;2023-06-10T01:50:09;100626.99;;;17.40;61.91
40171;BME280;37650;52.790;18.268;2023-06-10T01:53:30;100630.62;;;17.36;61.84
40171;BME280;37650;52.790;18.268;2023-06-10T01:56:52;100633.48;;;17.33;61.86
40171;BME280;37650;52.790;18.268;2023-06-10T02:00:13;100636.27;;;17.28;61.96
40171;BME280;37650;52.790;18.268;2023-06-10T02:03:39;100638.73;;;17.22;61.91
40171;BME280;37650;52.790;18.268;2023-06-10T02:07:01;100638.65;;;17.17;62.07
40171;BME280;37650;52.790;18.268;2023-06-10T02:10:24;100641.47;;;17.15;62.18
40171;BME280;37650;52.790;18.268;2023-06-10T02:13:46;100640.29;;;17.11;62.07
40171;BME280;37650;52.790;18.268;2023-06-10T02:17:07;100646.73;;;17.04;62.14
40171;BME280;37650;52.790;18.268;2023-06-10T02:20:28;100646.36;;;16.98;62.23
40171;BME280;37650;52.790;18.268;2023-06-10T02:23:51;100643.73;;;16.92;62.36
40171;BME280;37650;52.790;18.268;2023-06-10T02:27:12;100643.32;;;16.90;62.54
40171;BME280;37650;52.790;18.268;2023-06-10T02:30:34;100646.00;;;16.89;62.64
40171;BME280;37650;52.790;18.268;2023-06-10T02:33:55;100648.08;;;16.84;62.57
40171;BME280;37650;52.790;18.268;2023-06-10T02:37:18;100658.02;;;16.81;62.72
40171;BME280;37650;52.790;18.268;2023-06-10T02:40:39;100660.47;;;16.78;62.83
40171;BME280;37650;52.790;18.268;2023-06-10T02:44:01;100668.52;;;16.74;62.93
40171;BME280;37650;52.790;18.268;2023-06-10T02:47:22;100665.36;;;16.73;62.90
40171;BME280;37650;52.790;18.268;2023-06-10T02:50:44;100666.35;;;16.72;62.86
40171;BME280;37650;52.790;18.268;2023-06-10T02:54:21;100668.77;;;16.70;62.96
40171;BME280;37650;52.790;18.268;2023-06-10T02:57:44;100666.19;;;16.68;63.08
40171;BME280;37650;52.790;18.268;2023-06-10T03:01:07;100665.69;;;16.65;63.32
40171;BME280;37650;52.790;18.268;2023-06-10T03:04:37;100672.21;;;16.65;63.39
40171;BME280;37650;52.790;18.268;2023-06-10T03:08:01;100674.79;;;16.67;63.51
40171;BME280;37650;52.790;18.268;2023-06-10T03:11:23;100680.70;;;16.68;63.60
40171;BME280;37650;52.790;18.268;2023-06-10T03:14:45;100685.94;;;16.67;63.66
40171;BME280;37650;52.790;18.268;2023-06-10T03:18:06;100691.48;;;16.66;63.77
40171;BME280;37650;52.790;18.268;2023-06-10T03:21:28;100690.13;;;16.68;64.00
40171;BME280;37650;52.790;18.268;2023-06-10T03:24:51;100686.23;;;16.68;63.99
40171;BME280;37650;52.790;18.268;2023-06-10T03:28:12;100681.38;;;16.69;64.08
40171;BME280;37650;52.790;18.268;2023-06-10T03:31:34;100682.00;;;16.71;64.08
40171;BME280;37650;52.790;18.268;2023-06-10T03:34:59;100681.64;;;16.77;64.25
40171;BME280;37650;52.790;18.268;2023-06-10T03:38:22;100681.79;;;16.83;64.22
40171;BME280;37650;52.790;18.268;2023-06-10T03:41:43;100689.65;;;16.91;64.06
40171;BME280;37650;52.790;18.268;2023-06-10T03:45:05;100697.91;;;17.02;64.12
40171;BME280;37650;52.790;18.268;2023-06-10T03:48:27;100709.08;;;17.11;64.05
40171;BME280;37650;52.790;18.268;2023-06-10T03:51:48;100720.54;;;17.17;63.91
40171;BME280;37650;52.790;18.268;2023-06-10T03:55:10;100724.13;;;17.25;63.91
40171;BME280;37650;52.790;18.268;2023-06-10T03:58:32;100724.30;;;17.35;63.99
40171;BME280;37650;52.790;18.268;2023-06-10T04:01:53;100727.23;;;17.45;63.88
40171;BME280;37650;52.790;18.268;2023-06-10T04:05:16;100732.04;;;17.51;63.66
40171;BME280;37650;52.790;18.268;2023-06-10T04:08:37;100736.83;;;17.56;63.50
40171;BME280;37650;52.790;18.268;2023-06-10T04:11:59;100743.99;;;17.65;63.69
40171;BME280;37650;52.790;18.268;2023-06-10T04:15:20;100744.55;;;17.76;63.61
40171;BME280;37650;52.790;18.268;2023-06-10T04:18:42;100750.12;;;17.86;63.55
40171;BME280;37650;52.790;18.268;2023-06-10T04:22:04;100757.67;;;17.93;63.19
40171;BME280;37650;52.790;18.268;2023-06-10T04:25:26;100755.77;;;18.01;63.09
40171;BME280;37650;52.790;18.268;2023-06-10T04:28:49;100756.02;;;18.11;62.89
40171;BME280;37650;52.790;18.268;2023-06-10T04:32:12;100761.13;;;18.26;63.01
40171;BME280;37650;52.790;18.268;2023-06-10T04:35:34;100764.29;;;18.40;62.58
40171;BME280;37650;52.790;18.268;2023-06-10T04:38:55;100768.25;;;18.51;62.28
40171;BME280;37650;52.790;18.268;2023-06-10T04:42:16;100765.02;;;18.68;62.31
40171;BME280;37650;52.790;18.268;2023-06-10T04:45:38;100769.20;;;18.88;62.07
40171;BME280;37650;52.790;18.268;2023-06-10T04:49:00;100770.11;;;19.02;61.80
40171;BME280;37650;52.790;18.268;2023-06-10T04:52:22;100774.98;;;19.12;61.33
40171;BME280;37650;52.790;18.268;2023-06-10T04:55:44;100775.08;;;19.18;61.16
40171;BME280;37650;52.790;18.268;2023-06-10T04:59:05;100778.13;;;19.22;61.12
40171;BME280;37650;52.790;18.268;2023-06-10T05:02:26;100781.05;;;19.27;60.85
40171;BME280;37650;52.790;18.268;2023-06-10T05:05:47;100781.34;;;19.30;60.58
40171;BME280;37650;52.790;18.268;2023-06-10T05:09:09;100785.24;;;19.44;60.70
40171;BME280;37650;52.790;18.268;2023-06-10T05:12:30;100795.08;;;19.62;60.55
40171;BME280;37650;52.790;18.268;2023-06-10T05:15:51;100797.67;;;19.60;60.16
40171;BME280;37650;52.790;18.268;2023-06-10T05:19:13;100799.92;;;19.71;60.26
40171;BME280;37650;52.790;18.268;2023-06-10T05:22:34;100798.69;;;19.74;60.01
40171;BME280;37650;52.790;18.268;2023-06-10T05:25:55;100796.00;;;19.76;59.86
40171;BME280;37650;52.790;18.268;2023-06-10T05:29:17;100795.37;;;19.86;59.98
40171;BME280;37650;52.790;18.268;2023-06-10T05:32:38;100792.91;;;20.06;59.87
40171;BME280;37650;52.790;18.268;2023-06-10T05:36:00;100792.16;;;20.21;59.42
40171;BME280;37650;52.790;18.268;2023-06-10T05:39:21;100795.52;;;20.37;59.43
40171;BME280;37650;52.790;18.268;2023-06-10T05:42:42;100800.92;;;20.49;58.90
40171;BME280;37650;52.790;18.268;2023-06-10T05:46:03;100800.02;;;20.59;58.98
40171;BME280;37650;52.790;18.268;2023-06-10T05:49:27;100801.27;;;20.83;58.95
40171;BME280;37650;52.790;18.268;2023-06-10T05:52:48;100802.98;;;21.06;58.31
40171;BME280;37650;52.790;18.268;2023-06-10T05:56:09;100803.46;;;21.19;57.74
40171;BME280;37650;52.790;18.268;2023-06-10T05:59:31;100803.47;;;21.26;57.01
40171;BME280;37650;52.790;18.268;2023-06-10T06:02:52;100804.40;;;21.42;56.88
40171;BME280;37650;52.790;18.268;2023-06-10T06:06:13;100802.64;;;21.51;56.24
40171;BME280;37650;52.790;18.268;2023-06-10T06:09:34;100806.46;;;21.67;56.29
40171;BME280;37650;52.790;18.268;2023-06-10T06:12:56;100806.88;;;21.84;55.97
40171;BME280;37650;52.790;18.268;2023-06-10T06:16:17;100801.94;;;22.07;55.73
40171;BME280;37650;52.790;18.268;2023-06-10T06:19:39;100803.06;;;22.17;55.36
40171;BME280;37650;52.790;18.268;2023-06-10T06:23:01;100806.95;;;22.45;55.13
40171;BME280;37650;52.790;18.268;2023-06-10T06:26:23;100805.57;;;22.59;54.44
40171;BME280;37650;52.790;18.268;2023-06-10T06:29:44;100811.30;;;22.80;54.39
40171;BME280;37650;52.790;18.268;2023-06-10T06:33:05;100809.45;;;23.02;53.79
40171;BME280;37650;52.790;18.268;2023-06-10T06:36:27;100806.86;;;23.21;53.46
40171;BME280;37650;52.790;18.268;2023-06-10T06:39:48;100809.72;;;23.53;53.22
40171;BME280;37650;52.790;18.268;2023-06-10T06:43:10;100815.25;;;23.78;52.58
40171;BME280;37650;52.790;18.268;2023-06-10T06:46:51;100818.23;;;23.96;51.56
40171;BME280;37650;52.790;18.268;2023-06-10T06:50:12;100821.19;;;24.26;51.18
40171;BME280;37650;52.790;18.268;2023-06-10T06:53:33;100817.45;;;24.35;50.35
40171;BME280;37650;52.790;18.268;2023-06-10T06:56:56;100822.30;;;24.25;49.78
40171;BME280;37650;52.790;18.268;2023-06-10T07:00:18;100821.96;;;24.33;50.02
40171;BME280;37650;52.790;18.268;2023-06-10T07:03:39;100822.56;;;24.52;49.92
40171;BME280;37650;52.790;18.268;2023-06-10T07:07:01;100823.10;;;24.38;49.33
40171;BME280;37650;52.790;18.268;2023-06-10T07:10:24;100827.21;;;24.22;49.30
40171;BME280;37650;52.790;18.268;2023-06-10T07:13:46;100827.73;;;24.47;49.56
40171;BME280;37650;52.790;18.268;2023-06-10T07:17:08;100826.66;;;24.77;49.31
40171;BME280;37650;52.790;18.268;2023-06-10T07:20:29;100829.77;;;24.99;48.40
40171;BME280;37650;52.790;18.268;2023-06-10T07:23:50;100829.09;;;25.06;47.36
40171;BME280;37650;52.790;18.268;2023-06-10T07:27:14;100828.49;;;25.22;47.01
40171;BME280;37650;52.790;18.268;2023-06-10T07:30:35;100824.42;;;25.43;46.15
40171;BME280;37650;52.790;18.268;2023-06-10T07:33:56;100828.38;;;25.61;44.98
40171;BME280;37650;52.790;18.268;2023-06-10T07:37:18;100822.33;;;25.89;44.85
40171;BME280;37650;52.790;18.268;2023-06-10T07:40:40;100825.01;;;26.13;43.21
40171;BME280;37650;52.790;18.268;2023-06-10T07:44:02;100820.81;;;26.12;42.50
40171;BME280;37650;52.790;18.268;2023-06-10T07:47:23;100828.46;;;26.45;42.38
40171;BME280;37650;52.790;18.268;2023-06-10T07:50:45;100829.39;;;26.58;41.67
40171;BME280;37650;52.790;18.268;2023-06-10T07:54:06;100829.44;;;26.75;40.90
40171;BME280;37650;52.790;18.268;2023-06-10T07:57:27;100824.64;;;26.71;40.43
40171;BME280;37650;52.790;18.268;2023-06-10T08:00:48;100827.38;;;26.95;40.33
40171;BME280;37650;52.790;18.268;2023-06-10T08:04:09;100821.83;;;27.23;39.44
40171;BME280;37650;52.790;18.268;2023-06-10T08:07:30;100824.00;;;27.53;39.25
40171;BME280;37650;52.790;18.268;2023-06-10T08:10:52;100827.42;;;27.69;39.01
40171;BME280;37650;52.790;18.268;2023-06-10T08:14:13;100827.85;;;28.05;38.32
40171;BME280;37650;52.790;18.268;2023-06-10T08:17:34;100829.46;;;28.30;37.11
40171;BME280;37650;52.790;18.268;2023-06-10T08:20:56;100827.34;;;28.26;36.08
40171;BME280;37650;52.790;18.268;2023-06-10T08:24:17;100830.93;;;28.18;36.34
40171;BME280;37650;52.790;18.268;2023-06-10T08:27:39;100829.16;;;28.50;36.80
40171;BME280;37650;52.790;18.268;2023-06-10T08:31:00;100828.45;;;28.80;35.92
40171;BME280;37650;52.790;18.268;2023-06-10T08:34:22;100834.99;;;29.00;35.39
40171;BME280;37650;52.790;18.268;2023-06-10T08:37:43;100832.88;;;29.18;35.00
40171;BME280;37650;52.790;18.268;2023-06-10T08:41:05;100833.19;;;29.38;34.66
40171;BME280;37650;52.790;18.268;2023-06-10T08:44:30;100835.79;;;29.60;33.67
40171;BME280;37650;52.790;18.268;2023-06-10T08:47:53;100831.33;;;29.66;33.04
40171;BME280;37650;52.790;18.268;2023-06-10T08:51:17;100830.83;;;29.48;32.81
40171;BME280;37650;52.790;18.268;2023-06-10T08:54:38;100831.14;;;29.62;32.72
40171;BME280;37650;52.790;18.268;2023-06-10T08:58:03;100833.65;;;29.62;31.90
40171;BME280;37650;52.790;18.268;2023-06-10T09:01:25;100833.86;;;29.60;32.20
40171;BME280;37650;52.790;18.268;2023-06-10T09:04:47;100833.98;;;29.46;31.81
40171;BME280;37650;52.790;18.268;2023-06-10T09:08:09;100838.33;;;29.62;32.18
40171;BME280;37650;52.790;18.268;2023-06-10T09:11:31;100838.16;;;29.83;31.52
40171;BME280;37650;52.790;18.268;2023-06-10T09:14:52;100841.70;;;29.87;30.91
40171;BME280;37650;52.790;18.268;2023-06-10T09:18:14;100836.52;;;29.82;31.23
40171;BME280;37650;52.790;18.268;2023-06-10T09:21:35;100832.73;;;29.98;31.16
40171;BME280;37650;52.790;18.268;2023-06-10T09:28:26;100830.82;;;30.05;30.74
40171;BME280;37650;52.790;18.268;2023-06-10T09:31:47;100831.97;;;30.08;30.40
40171;BME280;37650;52.790;18.268;2023-06-10T09:35:09;100829.54;;;30.34;30.02
40171;BME280;37650;52.790;18.268;2023-06-10T09:38:33;100832.70;;;30.25;29.82
40171;BME280;37650;52.790;18.268;2023-06-10T09:41:54;100831.67;;;30.44;29.35
40171;BME280;37650;52.790;18.268;2023-06-10T09:45:32;100831.02;;;30.46;29.00
40171;BME280;37650;52.790;18.268;2023-06-10T09:48:53;100826.55;;;30.78;28.96
40171;BME280;37650;52.790;18.268;2023-06-10T09:52:21;100826.13;;;30.95;29.17
40171;BME280;37650;52.790;18.268;2023-06-10T09:55:43;100834.86;;;31.03;28.68
40171;BME280;37650;52.790;18.268;2023-06-10T09:59:05;100833.87;;;31.13;28.60
40171;BME280;37650;52.790;18.268;2023-06-10T10:02:27;100832.13;;;31.42;28.43
40171;BME280;37650;52.790;18.268;2023-06-10T10:05:48;100834.50;;;31.37;27.87
40171;BME280;37650;52.790;18.268;2023-06-10T10:09:09;100829.71;;;31.05;27.76
40171;BME280;37650;52.790;18.268;2023-06-10T10:12:31;100831.61;;;30.92;27.56
40171;BME280;37650;52.790;18.268;2023-06-10T10:15:52;100829.15;;;30.80;27.79
40171;BME280;37650;52.790;18.268;2023-06-10T10:19:20;100829.66;;;30.98;27.02
40171;BME280;37650;52.790;18.268;2023-06-10T10:22:43;100828.89;;;30.92;27.42
40171;BME280;37650;52.790;18.268;2023-06-10T10:26:10;100830.13;;;31.20;27.51
40171;BME280;37650;52.790;18.268;2023-06-10T10:29:39;100831.36;;;31.13;27.59
40171;BME280;37650;52.790;18.268;2023-06-10T10:33:06;100827.06;;;30.95;26.74
40171;BME280;37650;52.790;18.268;2023-06-10T10:36:30;100827.17;;;31.13;27.18
40171;BME280;37650;52.790;18.268;2023-06-10T10:39:53;100829.77;;;31.26;26.88
40171;BME280;37650;52.790;18.268;2023-06-10T10:43:15;100826.64;;;31.05;26.45
40171;BME280;37650;52.790;18.268;2023-06-10T10:46:45;100825.83;;;30.99;27.00
40171;BME280;37650;52.790;18.268;2023-06-10T10:50:17;100825.47;;;30.98;27.03
40171;BME280;37650;52.790;18.268;2023-06-10T10:53:39;100824.19;;;31.07;26.83
40171;BME280;37650;52.790;18.268;2023-06-10T11:00:37;100828.85;;;31.49;26.32
40171;BME280;37650;52.790;18.268;2023-06-10T11:03:59;100824.23;;;31.53;26.41
40171;BME280;37650;52.790;18.268;2023-06-10T11:07:21;100822.64;;;31.73;25.98
40171;BME280;37650;52.790;18.268;2023-06-10T11:10:51;100820.70;;;31.88;25.59
40171;BME280;37650;52.790;18.268;2023-06-10T11:14:29;100820.80;;;31.89;25.43
40171;BME280;37650;52.790;18.268;2023-06-10T11:22:05;100821.76;;;31.87;25.00
40171;BME280;37650;52.790;18.268;2023-06-10T11:25:47;100824.52;;;31.90;24.64
40171;BME280;37650;52.790;18.268;2023-06-10T11:33:06;100818.13;;;31.55;24.09
40171;BME280;37650;52.790;18.268;2023-06-10T11:36:28;100814.44;;;31.44;24.26
40171;BME280;37650;52.790;18.268;2023-06-10T11:39:53;100817.10;;;31.32;24.61
40171;BME280;37650;52.790;18.268;2023-06-10T11:43:19;100814.16;;;31.42;24.52
40171;BME280;37650;52.790;18.268;2023-06-10T11:46:41;100813.16;;;31.74;24.44
40171;BME280;37650;52.790;18.268;2023-06-10T11:50:06;100809.46;;;31.94;24.60
40171;BME280;37650;52.790;18.268;2023-06-10T11:53:27;100807.62;;;32.09;24.30
40171;BME280;37650;52.790;18.268;2023-06-10T11:56:48;100807.90;;;31.83;23.74
40171;BME280;37650;52.790;18.268;2023-06-10T12:05:17;100806.17;;;31.45;24.11
40171;BME280;37650;52.790;18.268;2023-06-10T12:08:43;100809.34;;;31.52;24.06
40171;BME280;37650;52.790;18.268;2023-06-10T12:12:05;100813.88;;;31.62;23.59
40171;BME280;37650;52.790;18.268;2023-06-10T12:15:28;100816.14;;;31.65;22.82
40171;BME280;37650;52.790;18.268;2023-06-10T12:18:50;100812.61;;;31.49;22.65
40171;BME280;37650;52.790;18.268;2023-06-10T12:22:11;100804.90;;;31.37;22.47
40171;BME280;37650;52.790;18.268;2023-06-10T12:25:32;100807.16;;;31.30;22.48
40171;BME280;37650;52.790;18.268;2023-06-10T12:28:54;100808.95;;;31.27;21.62
40171;BME280;37650;52.790;18.268;2023-06-10T12:32:15;100806.23;;;31.09;21.00
40171;BME280;37650;52.790;18.268;2023-06-10T12:35:47;100804.36;;;31.16;21.21
40171;BME280;37650;52.790;18.268;2023-06-10T12:39:09;100807.88;;;31.30;21.15
40171;BME280;37650;52.790;18.268;2023-06-10T12:42:30;100811.52;;;31.44;21.27
40171;BME280;37650;52.790;18.268;2023-06-10T12:45:52;100805.65;;;31.42;20.95
40171;BME280;37650;52.790;18.268;2023-06-10T12:49:20;100805.83;;;31.49;20.83
40171;BME280;37650;52.790;18.268;2023-06-10T12:52:41;100807.68;;;31.52;20.61
40171;BME280;37650;52.790;18.268;2023-06-10T12:56:03;100797.59;;;31.22;20.56
40171;BME280;37650;52.790;18.268;2023-06-10T12:59:24;100803.77;;;31.42;20.61
40171;BME280;37650;52.790;18.268;2023-06-10T13:02:45;100798.02;;;31.45;20.28
40171;BME280;37650;52.790;18.268;2023-06-10T13:06:06;100803.48;;;31.22;19.69
40171;BME280;37650;52.790;18.268;2023-06-10T13:09:28;100794.40;;;31.08;19.54
40171;BME280;37650;52.790;18.268;2023-06-10T13:12:50;100793.23;;;31.09;19.53
40171;BME280;37650;52.790;18.268;2023-06-10T13:16:11;100791.08;;;31.07;19.56
40171;BME280;37650;52.790;18.268;2023-06-10T13:19:33;100792.44;;;31.06;19.41
40171;BME280;37650;52.790;18.268;2023-06-10T13:22:54;100792.86;;;30.98;18.66
40171;BME280;37650;52.790;18.268;2023-06-10T13:26:15;100790.81;;;30.83;18.70
40171;BME280;37650;52.790;18.268;2023-06-10T13:29:39;100792.55;;;30.82;18.85
40171;BME280;37650;52.790;18.268;2023-06-10T13:33:01;100786.71;;;30.73;19.00
40171;BME280;37650;52.790;18.268;2023-06-10T13:36:21;100790.22;;;30.62;18.70
40171;BME280;37650;52.790;18.268;2023-06-10T13:39:42;100791.97;;;30.41;18.95
40171;BME280;37650;52.790;18.268;2023-06-10T13:43:04;100786.61;;;30.45;19.38
40171;BME280;37650;52.790;18.268;2023-06-10T13:46:25;100785.42;;;30.65;19.72
40171;BME280;37650;52.790;18.268;2023-06-10T13:49:47;100781.35;;;30.73;19.86
40171;BME280;37650;52.790;18.268;2023-06-10T13:53:08;100776.28;;;30.74;19.62
40171;BME280;37650;52.790;18.268;2023-06-10T13:56:29;100777.45;;;30.56;19.67
40171;BME280;37650;52.790;18.268;2023-06-10T13:59:51;100778.05;;;30.52;19.96
40171;BME280;37650;52.790;18.268;2023-06-10T14:03:12;100772.87;;;30.63;19.86
40171;BME280;37650;52.790;18.268;2023-06-10T14:06:34;100776.12;;;30.84;19.55
40171;BME280;37650;52.790;18.268;2023-06-10T14:09:55;100773.36;;;30.74;19.07
40171;BME280;37650;52.790;18.268;2023-06-10T14:13:17;100773.14;;;30.37;19.21
40171;BME280;37650;52.790;18.268;2023-06-10T14:16:38;100769.19;;;30.55;19.87
40171;BME280;37650;52.790;18.268;2023-06-10T14:19:59;100765.59;;;30.66;19.83
40171;BME280;37650;52.790;18.268;2023-06-10T14:23:21;100769.45;;;30.39;19.93
40171;BME280;37650;52.790;18.268;2023-06-10T14:26:42;100766.61;;;30.12;19.97
40171;BME280;37650;52.790;18.268;2023-06-10T14:30:05;100763.43;;;29.77;20.36
40171;BME280;37650;52.790;18.268;2023-06-10T14:33:26;100762.11;;;29.73;20.71
40171;BME280;37650;52.790;18.268;2023-06-10T14:36:48;100757.61;;;29.81;20.81
40171;BME280;37650;52.790;18.268;2023-06-10T14:40:09;100763.19;;;29.75;20.73
40171;BME280;37650;52.790;18.268;2023-06-10T14:43:31;100759.80;;;29.56;21.16
40171;BME280;37650;52.790;18.268;2023-06-10T14:46:52;100755.39;;;29.49;21.48
40171;BME280;37650;52.790;18.268;2023-06-10T14:50:22;100760.20;;;29.49;21.81
40171;BME280;37650;52.790;18.268;2023-06-10T14:53:44;100759.19;;;29.62;22.10
40171;BME280;37650;52.790;18.268;2023-06-10T14:57:07;100761.63;;;29.59;21.71
40171;BME280;37650;52.790;18.268;2023-06-10T15:00:28;100759.64;;;29.32;22.13
40171;BME280;37650;52.790;18.268;2023-06-10T15:03:49;100755.70;;;29.25;22.51
40171;BME280;37650;52.790;18.268;2023-06-10T15:07:11;100758.79;;;29.35;22.34
40171;BME280;37650;52.790;18.268;2023-06-10T15:10:32;100762.99;;;29.13;22.12
40171;BME280;37650;52.790;18.268;2023-06-10T15:13:53;100764.06;;;28.91;22.08
40171;BME280;37650;52.790;18.268;2023-06-10T15:17:15;100766.91;;;28.66;22.29
40171;BME280;37650;52.790;18.268;2023-06-10T15:20:36;100765.45;;;28.35;22.60
40171;BME280;37650;52.790;18.268;2023-06-10T15:23:58;100768.59;;;28.12;22.83
40171;BME280;37650;52.790;18.268;2023-06-10T15:27:19;100765.86;;;28.01;23.14
40171;BME280;37650;52.790;18.268;2023-06-10T15:30:40;100770.20;;;27.81;23.38
40171;BME280;37650;52.790;18.268;2023-06-10T15:34:01;100765.52;;;27.74;23.71
40171;BME280;37650;52.790;18.268;2023-06-10T15:37:23;100767.58;;;27.73;23.70
40171;BME280;37650;52.790;18.268;2023-06-10T15:40:45;100773.14;;;27.63;23.90
40171;BME280;37650;52.790;18.268;2023-06-10T15:44:06;100771.71;;;27.57;24.03
40171;BME280;37650;52.790;18.268;2023-06-10T15:47:27;100766.24;;;27.51;24.03
40171;BME280;37650;52.790;18.268;2023-06-10T15:50:49;100766.77;;;27.42;24.15
40171;BME280;37650;52.790;18.268;2023-06-10T15:54:11;100766.36;;;27.35;24.20
40171;BME280;37650;52.790;18.268;2023-06-10T15:57:32;100769.92;;;27.24;24.40
40171;BME280;37650;52.790;18.268;2023-06-10T16:00:54;100765.77;;;27.09;24.72
40171;BME280;37650;52.790;18.268;2023-06-10T16:04:15;100765.07;;;27.00;24.71
40171;BME280;37650;52.790;18.268;2023-06-10T16:07:36;100766.73;;;26.87;24.97
40171;BME280;37650;52.790;18.268;2023-06-10T16:10:57;100768.55;;;26.71;25.16
40171;BME280;37650;52.790;18.268;2023-06-10T16:14:19;100769.41;;;26.69;25.26
40171;BME280;37650;52.790;18.268;2023-06-10T16:17:40;100770.55;;;26.67;25.44
40171;BME280;37650;52.790;18.268;2023-06-10T16:21:01;100769.69;;;26.48;25.50
40171;BME280;37650;52.790;18.268;2023-06-10T16:24:23;100762.89;;;26.36;25.68
40171;BME280;37650;52.790;18.268;2023-06-10T16:27:45;100774.73;;;26.33;25.73
40171;BME280;37650;52.790;18.268;2023-06-10T16:31:06;100776.29;;;26.25;25.67
40171;BME280;37650;52.790;18.268;2023-06-10T16:34:27;100775.36;;;26.14;25.88
40171;BME280;37650;52.790;18.268;2023-06-10T16:37:49;100777.51;;;25.99;26.09
40171;BME280;37650;52.790;18.268;2023-06-10T16:41:10;100778.61;;;25.98;26.40
40171;BME280;37650;52.790;18.268;2023-06-10T16:44:31;100783.30;;;25.89;26.50
40171;BME280;37650;52.790;18.268;2023-06-10T16:47:52;100780.87;;;25.84;26.79
40171;BME280;37650;52.790;18.268;2023-06-10T16:51:14;100779.64;;;25.80;26.90
40171;BME280;37650;52.790;18.268;2023-06-10T16:54:36;100786.66;;;25.55;26.87
40171;BME280;37650;52.790;18.268;2023-06-10T16:58:01;100790.82;;;25.30;27.11
40171;BME280;37650;52.790;18.268;2023-06-10T17:01:22;100793.33;;;25.14;27.35
40171;BME280;37650;52.790;18.268;2023-06-10T17:04:43;100795.33;;;25.06;27.40
40171;BME280;37650;52.790;18.268;2023-06-10T17:08:04;100794.06;;;24.96;27.47
40171;BME280;37650;52.790;18.268;2023-06-10T17:11:26;100800.32;;;24.91;27.64
40171;BME280;37650;52.790;18.268;2023-06-10T17:14:47;100803.47;;;24.84;27.87
40171;BME280;37650;52.790;18.268;2023-06-10T17:18:08;100809.33;;;24.74;27.93
40171;BME280;37650;52.790;18.268;2023-06-10T17:21:30;100808.09;;;24.58;27.99
40171;BME280;37650;52.790;18.268;2023-06-10T17:24:51;100811.05;;;24.49;28.28
40171;BME280;37650;52.790;18.268;2023-06-10T17:28:12;100816.80;;;24.35;28.32
40171;BME280;37650;52.790;18.268;2023-06-10T17:31:33;100818.09;;;24.26;28.54
40171;BME280;37650;52.790;18.268;2023-06-10T17:34:54;100821.01;;;24.15;28.69
40171;BME280;37650;52.790;18.268;2023-06-10T17:38:16;100824.55;;;24.09;28.81
40171;BME280;37650;52.790;18.268;2023-06-10T17:41:37;100828.77;;;23.94;28.91
40171;BME280;37650;52.790;18.268;2023-06-10T17:44:59;100831.34;;;23.84;28.92
40171;BME280;37650;52.790;18.268;2023-06-10T17:48:20;100833.11;;;23.70;29.18